Time;durP1;ratioP1;P1;durP2;ratioP2;P2;SDS_P1;SDS_P2;PMS_P1;PMS_P2;Temp;Humidity;BMP_temperature;BMP_pressure;BME280_temperature;BME280_humidity;BME280_pressure;Samples;Min_cycle;Max_cycle;Signal;HPM_P1;HPM_P2
2022/05/18 00:00:48;;;;;;;0.50;0.50;;;17.80;99.90;;;;;;4992028;28;20948;-73
2022/05/18 00:03:16;;;;;;;0.40;0.20;;;17.80;99.90;;;;;;4991000;28;20421;-74
2022/05/18 00:05:42;;;;;;;0.40;0.20;;;17.70;99.90;;;;;;4990944;28;20599;-74
2022/05/18 00:08:09;;;;;;;0.40;0.40;;;17.60;99.90;;;;;;4991984;28;20394;-74
2022/05/18 00:10:36;;;;;;;0.70;0.70;;;17.60;99.90;;;;;;4992293;28;20390;-73
2022/05/18 00:13:03;;;;;;;0.70;0.70;;;17.50;99.90;;;;;;4989656;28;20492;-73
2022/05/18 00:15:29;;;;;;;0.40;0.30;;;17.50;99.90;;;;;;4992141;28;20870;-73
2022/05/18 00:17:55;;;;;;;0.40;0.40;;;17.60;99.90;;;;;;4991686;28;20383;-73
2022/05/18 00:20:21;;;;;;;0.40;0.20;;;17.60;99.90;;;;;;4991822;28;20905;-74
2022/05/18 00:22:50;;;;;;;0.40;0.20;;;17.70;99.90;;;;;;4990845;28;20445;-74
2022/05/18 00:25:18;;;;;;;0.50;0.50;;;17.60;99.90;;;;;;4991987;28;20794;-74
2022/05/18 00:27:44;;;;;;;0.40;0.20;;;17.50;99.90;;;;;;4991831;28;20470;-74
2022/05/18 00:30:11;;;;;;;0.40;0.30;;;17.50;99.90;;;;;;4991663;28;20474;-74
2022/05/18 00:32:37;;;;;;;0.40;0.20;;;17.50;99.90;;;;;;4991550;28;20485;-74
2022/05/18 00:35:03;;;;;;;0.40;0.20;;;17.50;99.90;;;;;;4991268;28;20461;-73
2022/05/18 00:37:29;;;;;;;0.55;0.55;;;17.50;99.90;;;;;;4991814;28;20382;-73
2022/05/18 00:39:55;;;;;;;0.40;0.20;;;17.40;99.90;;;;;;4973642;28;20521;-74
2022/05/18 00:42:23;;;;;;;0.40;0.20;;;17.40;99.90;;;;;;4991690;28;20520;-74
2022/05/18 00:44:49;;;;;;;0.40;0.40;;;17.50;99.90;;;;;;4989949;28;20441;-74
2022/05/18 00:47:15;;;;;;;0.40;0.20;;;17.40;99.90;;;;;;4974129;28;20430;-73
2022/05/18 00:49:45;;;;;;;0.40;0.20;;;17.40;99.90;;;;;;4991051;28;20387;-73
2022/05/18 00:52:13;;;;;;;0.40;0.20;;;17.40;99.90;;;;;;4991340;28;20876;-73
2022/05/18 00:54:39;;;;;;;0.40;0.20;;;17.40;99.90;;;;;;4990529;28;20390;-73
2022/05/18 00:57:08;;;;;;;0.40;0.20;;;17.50;99.90;;;;;;4989499;28;21055;-74
2022/05/18 00:59:50;;;;;;;0.40;0.30;;;17.40;99.90;;;;;;4990331;28;20940;-73
2022/05/18 01:02:18;;;;;;;1.30;0.80;;;17.40;99.90;;;;;;4989972;28;20509;-74
2022/05/18 01:04:46;;;;;;;0.40;0.30;;;17.30;99.90;;;;;;4990225;28;20450;-73
2022/05/18 01:07:19;;;;;;;0.40;0.30;;;17.40;99.90;;;;;;4990858;28;20393;-73
2022/05/18 01:09:46;;;;;;;0.40;0.30;;;17.40;99.90;;;;;;4974019;28;20394;-73
2022/05/18 01:12:15;;;;;;;0.40;0.30;;;17.40;99.90;;;;;;4990626;28;20399;-74
2022/05/18 01:14:44;;;;;;;0.40;0.20;;;17.40;99.90;;;;;;4990877;28;20448;-73
2022/05/18 01:17:12;;;;;;;1.30;0.95;;;17.40;99.90;;;;;;4990407;28;20419;-73
2022/05/18 01:19:44;;;;;;;0.40;0.20;;;17.40;99.90;;;;;;4989878;28;20390;-73
2022/05/18 01:22:40;;;;;;;0.40;0.20;;;17.40;99.90;;;;;;4990088;28;20857;-73
2022/05/18 01:25:09;;;;;;;0.40;0.30;;;17.40;99.90;;;;;;4990533;28;20395;-73
2022/05/18 01:27:35;;;;;;;0.40;0.20;;;17.30;99.90;;;;;;4991462;28;20453;-73
2022/05/18 01:30:01;;;;;;;0.40;0.20;;;17.30;99.90;;;;;;4989864;28;20406;-74
2022/05/18 01:32:49;;;;;;;0.40;0.20;;;17.30;99.90;;;;;;4991257;28;20421;-73
2022/05/18 01:35:19;;;;;;;0.40;0.20;;;17.10;99.90;;;;;;4991293;28;20469;-74
2022/05/18 01:37:45;;;;;;;0.40;0.20;;;17.00;99.90;;;;;;4990549;28;20434;-73
2022/05/18 01:40:19;;;;;;;0.40;0.40;;;17.00;99.90;;;;;;4990049;28;20394;-73
2022/05/18 01:42:48;;;;;;;0.50;0.40;;;17.00;99.90;;;;;;4990779;28;20430;-73
2022/05/18 01:45:15;;;;;;;0.40;0.20;;;16.90;99.90;;;;;;4990747;28;20390;-73
2022/05/18 01:47:41;;;;;;;0.50;0.50;;;16.90;99.90;;;;;;4990992;28;20390;-73
2022/05/18 01:50:12;;;;;;;0.40;0.30;;;16.90;99.90;;;;;;4990281;28;21018;-73
2022/05/18 01:52:38;;;;;;;0.40;0.40;;;16.90;99.90;;;;;;4990347;28;20405;-73
2022/05/18 01:55:05;;;;;;;0.40;0.20;;;16.90;99.90;;;;;;4989651;28;20383;-74
2022/05/18 01:57:33;;;;;;;0.40;0.28;;;16.90;99.90;;;;;;4989061;28;20399;-74
2022/05/18 01:59:58;;;;;;;0.40;0.30;;;16.90;99.90;;;;;;4989063;28;20442;-73
2022/05/18 02:02:24;;;;;;;0.50;0.40;;;16.90;99.90;;;;;;4972867;28;20465;-74
2022/05/18 02:04:50;;;;;;;0.40;0.20;;;16.80;99.90;;;;;;4989908;28;20901;-73
2022/05/18 02:07:16;;;;;;;0.40;0.20;;;16.80;99.90;;;;;;4990027;28;20468;-73
2022/05/18 02:09:42;;;;;;;0.40;0.20;;;16.70;99.90;;;;;;4990649;28;20422;-73
2022/05/18 02:12:10;;;;;;;0.40;0.20;;;16.60;99.90;;;;;;4989980;28;20531;-73
2022/05/18 02:14:36;;;;;;;0.40;0.20;;;16.60;99.90;;;;;;4990189;28;20406;-73
2022/05/18 02:17:02;;;;;;;0.40;0.20;;;16.50;99.90;;;;;;4989853;28;20449;-74
2022/05/18 02:19:27;;;;;;;0.40;0.20;;;16.50;99.90;;;;;;4990414;28;20383;-73
2022/05/18 02:21:53;;;;;;;0.40;0.20;;;16.50;99.90;;;;;;4989939;28;20374;-73
2022/05/18 02:24:19;;;;;;;0.40;0.23;;;16.40;99.90;;;;;;4990031;28;20415;-73
2022/05/18 02:26:45;;;;;;;0.40;0.20;;;16.40;99.90;;;;;;4990339;28;20382;-73
2022/05/18 02:29:11;;;;;;;0.40;0.20;;;16.30;99.90;;;;;;4990197;28;20387;-73
2022/05/18 02:31:37;;;;;;;0.40;0.30;;;16.40;99.90;;;;;;4989309;28;20402;-73
2022/05/18 02:34:03;;;;;;;0.40;0.20;;;16.40;99.90;;;;;;4992084;28;20399;-73
2022/05/18 02:36:29;;;;;;;0.40;0.40;;;16.40;99.90;;;;;;4994325;28;20395;-73
2022/05/18 02:38:55;;;;;;;0.40;0.20;;;16.40;99.90;;;;;;4993595;28;20393;-73
2022/05/18 02:41:20;;;;;;;0.40;0.20;;;16.40;99.90;;;;;;4992965;28;20391;-74
2022/05/18 02:43:46;;;;;;;0.40;0.20;;;16.40;99.90;;;;;;4992961;28;20465;-73
2022/05/18 02:46:15;;;;;;;0.40;0.20;;;16.30;99.90;;;;;;4993081;28;20398;-73
2022/05/18 02:48:42;;;;;;;0.40;0.20;;;16.30;99.90;;;;;;4993360;28;21065;-74
2022/05/18 02:51:09;;;;;;;0.40;0.20;;;16.30;99.90;;;;;;4992043;28;20482;-74
2022/05/18 02:53:35;;;;;;;0.40;0.20;;;16.40;99.90;;;;;;4976270;28;20898;-73
2022/05/18 02:56:05;;;;;;;0.40;0.30;;;16.40;99.90;;;;;;4992784;28;20386;-73
2022/05/18 02:58:50;;;;;;;0.40;0.20;;;16.30;99.90;;;;;;4992760;28;20382;-73
2022/05/18 03:01:22;;;;;;;0.40;0.20;;;16.30;99.90;;;;;;4988108;28;20465;-73
2022/05/18 03:03:49;;;;;;;0.40;0.20;;;16.30;99.90;;;;;;4992894;28;20902;-74
2022/05/18 03:06:16;;;;;;;0.50;0.40;;;16.20;99.90;;;;;;4992349;28;20379;-74
2022/05/18 03:08:44;;;;;;;0.50;0.40;;;16.20;99.90;;;;;;4993153;28;20409;-74
2022/05/18 03:11:10;;;;;;;0.40;0.30;;;16.20;99.90;;;;;;4992763;28;20394;-74
2022/05/18 03:13:36;;;;;;;0.40;0.40;;;16.20;99.90;;;;;;4992552;28;20414;-74
2022/05/18 03:16:02;;;;;;;0.40;0.20;;;16.20;99.90;;;;;;4992430;28;20391;-72
2022/05/18 03:18:29;;;;;;;0.50;0.50;;;16.10;99.90;;;;;;4993576;28;20397;-74
2022/05/18 03:23:42;;;;;;;0.40;0.20;;;16.20;99.90;;;;;;4992610;28;20426;-74
2022/05/18 03:26:19;;;;;;;0.40;0.30;;;16.20;99.90;;;;;;4991796;28;20375;-74
2022/05/18 03:28:47;;;;;;;0.50;0.50;;;16.20;99.90;;;;;;4992799;28;20504;-73
2022/05/18 03:31:13;;;;;;;0.40;0.20;;;16.30;99.90;;;;;;4992233;28;21293;-74
2022/05/18 03:33:39;;;;;;;0.40;0.30;;;16.20;99.90;;;;;;4991740;28;20416;-73
2022/05/18 03:36:08;;;;;;;0.40;0.30;;;16.20;99.90;;;;;;4991777;28;20754;-74
2022/05/18 03:38:34;;;;;;;0.40;0.20;;;16.20;99.90;;;;;;4992876;28;20786;-74
2022/05/18 03:41:00;;;;;;;0.40;0.20;;;16.30;99.90;;;;;;4990317;28;20395;-74
2022/05/18 03:46:37;;;;;;;0.47;0.30;;;16.20;99.90;;;;;;5043314;22;20415;-71
2022/05/18 03:49:07;;;;;;;0.40;0.35;;;16.20;99.90;;;;;;5009631;28;20464;-71
2022/05/18 03:51:33;;;;;;;0.40;0.40;;;16.10;99.90;;;;;;5011833;28;20412;-71
2022/05/18 03:53:59;;;;;;;0.40;0.20;;;16.10;99.90;;;;;;5011360;28;20413;-72
2022/05/18 03:56:26;;;;;;;0.40;0.40;;;16.20;99.90;;;;;;5011778;28;20400;-71
2022/05/18 03:58:52;;;;;;;0.50;0.50;;;16.10;99.90;;;;;;5013779;28;20381;-71
2022/05/18 04:01:17;;;;;;;0.40;0.20;;;16.00;99.90;;;;;;5010888;28;20381;-71
2022/05/18 04:03:45;;;;;;;0.40;0.40;;;16.10;99.90;;;;;;5011638;28;20451;-71
2022/05/18 04:06:11;;;;;;;0.40;0.30;;;16.10;99.90;;;;;;5011314;28;20396;-71
2022/05/18 04:08:37;;;;;;;0.40;0.20;;;16.20;99.90;;;;;;5009019;28;20393;-71
2022/05/18 04:11:04;;;;;;;0.40;0.30;;;16.00;99.90;;;;;;5010023;28;20463;-71
2022/05/18 04:13:31;;;;;;;0.40;0.40;;;16.10;99.90;;;;;;5009961;28;20470;-71
2022/05/18 04:15:58;;;;;;;0.40;0.30;;;16.00;99.90;;;;;;5012039;28;20396;-72
2022/05/18 04:18:24;;;;;;;0.50;0.40;;;16.10;99.90;;;;;;5011445;28;20408;-71
2022/05/18 04:20:51;;;;;;;0.40;0.20;;;16.10;99.90;;;;;;5009719;28;20400;-71
2022/05/18 04:23:17;;;;;;;0.40;0.30;;;16.00;99.90;;;;;;5004415;28;20426;-71
2022/05/18 04:25:43;;;;;;;0.40;0.20;;;15.90;99.90;;;;;;4991797;28;20414;-71
2022/05/18 04:28:13;;;;;;;0.40;0.20;;;16.00;99.90;;;;;;4991918;28;20387;-71
2022/05/18 04:30:44;;;;;;;0.40;0.20;;;16.10;99.90;;;;;;5009659;28;20397;-71
2022/05/18 04:33:17;;;;;;;0.40;0.20;;;15.90;99.90;;;;;;5011215;28;20425;-72
2022/05/18 04:35:43;;;;;;;0.60;0.60;;;16.10;99.90;;;;;;5011781;28;20432;-72
2022/05/18 04:38:09;;;;;;;0.70;0.70;;;16.10;99.90;;;;;;5011586;28;20417;-72
2022/05/18 04:40:35;;;;;;;0.40;0.20;;;16.20;99.90;;;;;;4993234;28;20403;-72
2022/05/18 04:43:00;;;;;;;0.50;0.30;;;16.20;99.90;;;;;;5005039;28;20414;-72
2022/05/18 04:45:27;;;;;;;0.40;0.30;;;16.20;99.90;;;;;;5005381;28;20477;-72
2022/05/18 04:47:53;;;;;;;0.40;0.40;;;16.30;99.90;;;;;;5006957;28;20466;-72
2022/05/18 04:50:20;;;;;;;0.40;0.20;;;16.20;99.90;;;;;;5009570;28;20385;-72
2022/05/18 04:52:46;;;;;;;0.40;0.20;;;16.30;99.90;;;;;;5017404;28;20392;-72
2022/05/18 04:55:12;;;;;;;0.40;0.20;;;16.30;99.90;;;;;;5010573;28;20407;-72
2022/05/18 04:57:39;;;;;;;0.40;0.20;;;16.40;99.90;;;;;;5009127;28;20389;-72
2022/05/18 05:00:07;;;;;;;0.50;0.40;;;16.40;99.90;;;;;;5009834;28;20411;-72
2022/05/18 05:02:37;;;;;;;0.40;0.30;;;16.40;99.90;;;;;;4995890;28;21142;-72
2022/05/18 05:05:07;;;;;;;0.40;0.20;;;16.40;99.90;;;;;;5016055;28;20386;-72
2022/05/18 05:07:32;;;;;;;0.40;0.20;;;16.50;99.90;;;;;;5023855;28;20387;-72
2022/05/18 05:09:58;;;;;;;0.40;0.20;;;16.60;99.90;;;;;;5015691;28;20397;-72
2022/05/18 05:12:25;;;;;;;0.40;0.20;;;16.60;99.90;;;;;;5010050;28;20753;-72
2022/05/18 05:14:51;;;;;;;0.40;0.22;;;16.70;99.90;;;;;;5011027;28;20510;-71
2022/05/18 05:17:16;;;;;;;0.60;0.50;;;16.80;99.90;;;;;;5010324;28;20440;-72
2022/05/18 05:19:42;;;;;;;0.40;0.20;;;16.80;99.90;;;;;;5005693;28;20742;-71
2022/05/18 05:22:08;;;;;;;0.40;0.40;;;16.90;99.90;;;;;;5009990;28;20412;-71
2022/05/18 05:24:35;;;;;;;0.40;0.20;;;17.00;99.90;;;;;;4999663;28;20415;-71
2022/05/18 05:27:01;;;;;;;0.40;0.20;;;17.00;99.90;;;;;;5009377;28;20420;-72
2022/05/18 05:29:27;;;;;;;0.40;0.30;;;17.10;99.90;;;;;;5009559;28;20389;-72
2022/05/18 05:31:52;;;;;;;0.40;0.20;;;17.20;99.90;;;;;;5000460;28;20405;-72
2022/05/18 05:34:18;;;;;;;0.40;0.30;;;17.20;99.90;;;;;;5006215;28;20420;-73
2022/05/18 05:36:44;;;;;;;0.40;0.20;;;17.20;99.90;;;;;;4996556;28;20508;-72
2022/05/18 05:39:10;;;;;;;0.40;0.20;;;17.30;99.90;;;;;;4997201;28;20493;-72
2022/05/18 05:41:36;;;;;;;0.40;0.30;;;17.30;99.90;;;;;;4995234;28;20441;-72
2022/05/18 05:44:01;;;;;;;0.40;0.20;;;17.30;99.90;;;;;;4997463;28;20434;-72
2022/05/18 05:46:27;;;;;;;0.73;0.60;;;17.40;99.90;;;;;;5006243;28;20384;-72
2022/05/18 05:48:55;;;;;;;0.40;0.20;;;17.40;99.90;;;;;;5006155;28;20417;-72
2022/05/18 05:51:23;;;;;;;0.40;0.20;;;17.40;99.90;;;;;;4989444;28;20400;-72
2022/05/18 05:53:50;;;;;;;0.40;0.20;;;17.60;99.90;;;;;;5007987;28;20420;-71
2022/05/18 05:56:17;;;;;;;0.60;0.50;;;17.60;99.90;;;;;;5001578;28;20436;-73
2022/05/18 05:58:43;;;;;;;0.40;0.20;;;17.60;99.90;;;;;;5009190;28;20883;-72
2022/05/18 06:01:11;;;;;;;0.40;0.30;;;17.70;99.90;;;;;;5009484;28;20450;-72
2022/05/18 06:03:37;;;;;;;0.40;0.40;;;17.80;99.90;;;;;;5002190;28;20412;-71
2022/05/18 06:06:04;;;;;;;0.40;0.20;;;17.90;99.90;;;;;;5002186;28;20415;-72
2022/05/18 06:08:31;;;;;;;0.40;0.20;;;18.00;99.90;;;;;;5012441;28;20792;-73
2022/05/18 06:10:59;;;;;;;0.40;0.40;;;18.10;99.90;;;;;;5013698;28;20944;-72
2022/05/18 06:13:26;;;;;;;0.43;0.35;;;18.10;99.90;;;;;;5003567;28;20408;-72
2022/05/18 06:15:52;;;;;;;0.40;0.20;;;18.10;99.90;;;;;;5014125;28;20412;-71
2022/05/18 06:18:17;;;;;;;0.50;0.50;;;18.10;99.90;;;;;;5013875;28;20439;-72
2022/05/18 06:20:45;;;;;;;1.00;1.00;;;18.20;99.90;;;;;;5013452;28;20861;-72
2022/05/18 06:23:11;;;;;;;0.40;0.20;;;18.30;99.90;;;;;;5010464;28;20400;-71
2022/05/18 06:25:36;;;;;;;0.40;0.20;;;18.40;99.90;;;;;;5012839;28;20407;-72
2022/05/18 06:28:04;;;;;;;0.40;0.20;;;18.50;99.90;;;;;;5011867;28;20939;-71
2022/05/18 06:30:30;;;;;;;0.40;0.30;;;18.60;99.90;;;;;;4994419;28;20729;-72
2022/05/18 06:32:56;;;;;;;0.40;0.20;;;18.70;99.90;;;;;;5013248;28;20442;-71
2022/05/18 06:35:22;;;;;;;0.40;0.20;;;18.80;99.90;;;;;;5013298;28;20718;-72
2022/05/18 06:37:50;;;;;;;0.40;0.30;;;18.90;99.90;;;;;;5000365;28;20402;-72
2022/05/18 06:40:18;;;;;;;0.40;0.20;;;18.90;99.90;;;;;;4994382;28;20731;-72
2022/05/18 06:42:44;;;;;;;0.40;0.30;;;19.00;99.90;;;;;;4993419;28;20401;-71
2022/05/18 06:45:12;;;;;;;0.40;0.20;;;19.20;99.90;;;;;;4994340;28;20469;-71
2022/05/18 06:47:38;;;;;;;0.40;0.30;;;19.40;99.90;;;;;;4985444;28;20512;-72
2022/05/18 06:50:07;;;;;;;0.40;0.30;;;19.70;99.90;;;;;;5013318;28;20399;-71
2022/05/18 06:52:32;;;;;;;0.40;0.20;;;19.70;99.90;;;;;;4994902;28;20760;-71
2022/05/18 06:54:58;;;;;;;0.40;0.20;;;19.70;99.90;;;;;;4998648;28;20434;-70
2022/05/18 06:57:24;;;;;;;0.40;0.30;;;19.80;99.90;;;;;;4995718;28;20504;-71
2022/05/18 06:59:50;;;;;;;0.40;0.20;;;19.90;99.90;;;;;;5007483;28;20488;-71
2022/05/18 07:02:16;;;;;;;0.50;0.50;;;20.20;99.90;;;;;;5010923;28;20607;-71
2022/05/18 07:04:41;;;;;;;0.80;0.60;;;20.20;99.90;;;;;;5005635;28;20401;-72
2022/05/18 07:07:07;;;;;;;0.40;0.25;;;20.20;99.90;;;;;;5013588;28;20436;-72
2022/05/18 07:09:33;;;;;;;0.40;0.20;;;20.30;99.90;;;;;;5005681;28;20401;-72
2022/05/18 07:11:59;;;;;;;0.40;0.30;;;20.30;99.90;;;;;;5009100;28;20879;-72
2022/05/18 07:14:28;;;;;;;0.60;0.50;;;20.40;99.90;;;;;;5010370;28;20470;-72
2022/05/18 07:16:55;;;;;;;0.40;0.20;;;20.40;99.90;;;;;;5009486;28;20408;-72
2022/05/18 07:19:22;;;;;;;0.40;0.20;;;20.40;99.90;;;;;;5014365;28;20755;-72
2022/05/18 07:21:48;;;;;;;0.40;0.30;;;20.40;99.90;;;;;;5029031;28;20441;-73
2022/05/18 07:24:14;;;;;;;0.40;0.20;;;20.60;99.90;;;;;;5013997;28;20400;-73
2022/05/18 07:26:41;;;;;;;0.40;0.30;;;20.70;99.90;;;;;;5010736;28;20800;-72
2022/05/18 07:29:08;;;;;;;0.40;0.20;;;20.80;99.90;;;;;;4991097;28;20411;-73
2022/05/18 07:32:08;;;;;;;0.40;0.20;;;20.90;99.90;;;;;;5011797;28;20397;-75
2022/05/18 07:34:23;;;;;;;0.40;0.30;;;21.00;99.90;;;;;;5013403;28;20506;-73
2022/05/18 07:36:53;;;;;;;0.40;0.20;;;21.00;99.90;;;;;;5012382;28;20427;-73
2022/05/18 07:39:19;;;;;;;0.40;0.20;;;21.00;99.90;;;;;;5018325;28;20413;-72
2022/05/18 07:41:45;;;;;;;0.60;0.60;;;21.00;99.90;;;;;;5022983;28;20429;-72
2022/05/18 07:44:11;;;;;;;0.40;0.20;;;20.90;99.90;;;;;;5011125;28;20738;-73
2022/05/18 07:46:37;;;;;;;0.60;0.60;;;21.10;99.90;;;;;;5013217;28;20403;-73
2022/05/18 07:49:03;;;;;;;0.40;0.20;;;21.30;99.90;;;;;;5013654;28;20408;-73
2022/05/18 07:51:29;;;;;;;0.40;0.20;;;21.30;99.90;;;;;;5005087;28;20433;-72
2022/05/18 07:53:55;;;;;;;0.50;0.50;;;21.30;99.90;;;;;;5011027;28;20554;-72
2022/05/18 07:56:21;;;;;;;0.40;0.40;;;21.40;99.90;;;;;;4994271;28;20413;-73
2022/05/18 07:58:47;;;;;;;0.40;0.30;;;21.30;99.90;;;;;;5011719;28;20542;-72
2022/05/18 08:01:12;;;;;;;1.20;0.70;;;21.40;99.90;;;;;;5011134;28;20388;-72
2022/05/18 08:03:38;;;;;;;0.40;0.30;;;21.50;99.90;;;;;;4992459;28;20957;-73
2022/05/18 08:06:04;;;;;;;0.40;0.30;;;21.60;99.90;;;;;;5011940;28;20404;-73
2022/05/18 08:08:29;;;;;;;0.50;0.40;;;21.70;99.90;;;;;;5011725;28;20372;-72
2022/05/18 08:16:25;;;;;;;0.80;0.80;;;21.80;99.90;;;;;;5011547;28;20891;-73
2022/05/18 08:18:51;;;;;;;0.40;0.40;;;21.80;99.90;;;;;;5012385;28;20407;-72
2022/05/18 08:21:18;;;;;;;0.40;0.30;;;21.80;99.90;;;;;;5012180;28;20384;-71
2022/05/18 08:23:44;;;;;;;0.40;0.20;;;22.00;99.90;;;;;;5011122;28;20601;-72
2022/05/18 08:26:10;;;;;;;0.80;0.80;;;22.00;99.90;;;;;;5011728;28;20407;-72
2022/05/18 08:28:36;;;;;;;0.40;0.30;;;22.00;99.90;;;;;;5011304;28;20745;-72
2022/05/18 08:31:03;;;;;;;0.40;0.30;;;22.00;99.90;;;;;;5011099;28;20776;-72
2022/05/18 08:33:31;;;;;;;0.40;0.20;;;22.10;99.90;;;;;;5011143;28;20416;-72
2022/05/18 08:35:58;;;;;;;0.40;0.28;;;22.10;99.90;;;;;;5011686;28;20436;-71
2022/05/18 08:38:24;;;;;;;2.50;0.80;;;22.10;99.90;;;;;;5010862;28;20945;-71
2022/05/18 08:41:26;;;;;;;0.40;0.30;;;22.20;99.90;;;;;;5011733;28;20464;-71
2022/05/18 08:44:00;;;;;;;0.50;0.45;;;22.30;99.90;;;;;;4968313;28;21808;-72
2022/05/18 08:46:47;;;;;;;1.50;1.40;;;22.40;99.90;;;;;;5009156;28;20416;-72
2022/05/18 08:49:13;;;;;;;0.40;0.30;;;22.40;99.90;;;;;;5006217;28;20464;-70
2022/05/18 08:51:48;;;;;;;0.40;0.20;;;22.30;99.90;;;;;;5012893;28;20389;-71
2022/05/18 08:54:49;;;;;;;0.60;0.50;;;22.40;99.90;;;;;;5011373;28;20876;-71
2022/05/18 08:57:27;;;;;;;0.40;0.30;;;22.40;99.90;;;;;;5013618;28;20900;-71
2022/05/18 08:59:57;;;;;;;0.40;0.30;;;22.50;99.90;;;;;;5013571;28;20404;-71
2022/05/18 09:02:27;;;;;;;0.90;0.90;;;22.60;99.90;;;;;;5013270;28;20405;-70
2022/05/18 09:08:06;;;;;;;0.70;0.70;;;22.60;99.90;;;;;;5426850;22;20720;-90
2022/05/18 09:10:39;;;;;;;0.40;0.40;;;22.60;99.90;;;;;;4964317;28;20441;-71
2022/05/18 09:13:05;;;;;;;0.40;0.20;;;22.70;99.90;;;;;;4964017;28;20885;-71
2022/05/18 09:16:06;;;;;;;0.40;0.20;;;22.80;99.90;;;;;;4963306;28;20401;-71
2022/05/18 09:18:52;;;;;;;0.40;0.30;;;22.80;99.90;;;;;;4964558;28;20431;-70
2022/05/18 09:21:26;;;;;;;0.40;0.20;;;22.90;99.90;;;;;;4960242;28;20414;-72
2022/05/18 09:24:23;;;;;;;2.60;0.90;;;22.90;99.90;;;;;;4962515;28;20412;-71
2022/05/18 09:27:09;;;;;;;0.40;0.30;;;22.90;99.90;;;;;;4962249;28;20437;-71
2022/05/18 09:29:49;;;;;;;0.40;0.20;;;23.00;99.90;;;;;;4962873;28;20427;-72
2022/05/18 09:32:15;;;;;;;0.40;0.22;;;23.20;99.90;;;;;;4965009;28;20895;-70
2022/05/18 09:34:53;;;;;;;0.50;0.47;;;23.30;99.90;;;;;;4967193;28;20448;-70
2022/05/18 09:37:36;;;;;;;0.40;0.30;;;23.30;99.90;;;;;;4961159;28;20414;-72
2022/05/18 09:40:16;;;;;;;0.40;0.30;;;23.40;99.90;;;;;;4963665;28;20568;-72
2022/05/18 09:42:52;;;;;;;0.40;0.20;;;23.40;99.40;;;;;;4965739;28;20419;-70
2022/05/18 09:45:22;;;;;;;0.40;0.40;;;23.50;99.60;;;;;;4956853;28;20390;-73
2022/05/18 09:48:07;;;;;;;0.55;0.30;;;23.60;99.90;;;;;;4967330;28;20400;-71
2022/05/18 09:50:37;;;;;;;0.40;0.30;;;23.50;99.40;;;;;;4959909;28;20499;-71
2022/05/18 09:53:03;;;;;;;0.40;0.20;;;23.60;98.80;;;;;;4958811;28;20400;-70
2022/05/18 09:55:29;;;;;;;0.40;0.30;;;23.70;99.20;;;;;;4963932;28;20406;-71
2022/05/18 09:58:19;;;;;;;0.40;0.30;;;23.70;99.60;;;;;;4959409;28;20755;-71
2022/05/18 10:00:45;;;;;;;0.40;0.30;;;23.80;98.30;;;;;;4962475;28;20404;-71
2022/05/18 10:08:53;;;;;;;0.40;0.30;;;24.00;96.50;;;;;;4971840;28;20413;-71
2022/05/18 10:11:30;;;;;;;0.40;0.20;;;24.20;95.70;;;;;;4988786;28;20445;-71
2022/05/18 10:14:15;;;;;;;0.83;0.47;;;24.30;95.30;;;;;;4990820;28;20501;-71
2022/05/18 10:16:48;;;;;;;0.40;0.30;;;24.30;95.50;;;;;;4984635;28;20472;-70
2022/05/18 10:19:20;;;;;;;0.40;0.20;;;24.40;94.10;;;;;;4971492;28;20388;-71
2022/05/18 10:21:52;;;;;;;0.40;0.20;;;24.60;93.40;;;;;;4975911;28;20783;-71
2022/05/18 10:24:55;;;;;;;0.40;0.40;;;24.70;93.40;;;;;;4990029;28;20887;-70
2022/05/18 10:27:27;;;;;;;0.40;0.30;;;24.90;92.70;;;;;;4965761;28;22124;-73
2022/05/18 10:30:08;;;;;;;0.50;0.50;;;24.90;92.20;;;;;;4970284;28;20458;-72
2022/05/18 10:32:36;;;;;;;0.40;0.30;;;24.90;90.90;;;;;;4987719;28;20738;-70
2022/05/18 10:35:02;;;;;;;0.40;0.30;;;25.10;90.40;;;;;;4986548;28;20807;-69
2022/05/18 10:37:37;;;;;;;2.20;0.90;;;25.20;88.30;;;;;;4989075;28;20395;-71
2022/05/18 10:40:19;;;;;;;0.40;0.30;;;25.10;91.40;;;;;;4990670;28;20501;-70
2022/05/18 10:43:11;;;;;;;0.40;0.20;;;25.20;89.90;;;;;;4991128;28;20478;-70
2022/05/18 10:45:38;;;;;;;0.40;0.20;;;25.40;88.40;;;;;;4989762;28;20790;-71
2022/05/18 10:48:18;;;;;;;0.40;0.30;;;25.50;89.60;;;;;;4990495;28;20449;-71
2022/05/18 10:50:45;;;;;;;0.40;0.30;;;25.70;88.70;;;;;;4984852;28;20438;-72
2022/05/18 10:53:13;;;;;;;0.40;0.20;;;25.50;88.70;;;;;;4984320;28;20516;-70
2022/05/18 10:55:58;;;;;;;0.40;0.20;;;25.60;88.20;;;;;;4990559;28;20394;-69
2022/05/18 10:58:35;;;;;;;0.40;0.20;;;25.70;87.10;;;;;;4986923;28;20407;-72
2022/05/18 11:01:19;;;;;;;0.40;0.30;;;25.80;85.50;;;;;;4983374;28;20393;-71
2022/05/18 11:04:07;;;;;;;0.40;0.20;;;25.90;86.40;;;;;;4993394;28;20390;-71
2022/05/18 11:06:39;;;;;;;0.40;0.20;;;26.00;85.30;;;;;;4978860;28;20382;-72
2022/05/18 11:09:19;;;;;;;0.50;0.50;;;26.10;84.20;;;;;;4993170;28;20410;-72
2022/05/18 11:11:57;;;;;;;0.40;0.30;;;26.30;82.40;;;;;;4992845;28;20378;-72
2022/05/18 11:14:50;;;;;;;0.40;0.20;;;26.30;83.60;;;;;;4992923;28;20410;-71
2022/05/18 11:17:34;;;;;;;0.40;0.20;;;26.30;82.30;;;;;;4993098;28;20418;-72
2022/05/18 11:20:09;;;;;;;0.40;0.30;;;26.60;82.00;;;;;;4979942;28;20408;-71
2022/05/18 11:23:13;;;;;;;0.40;0.30;;;26.90;80.00;;;;;;4992700;28;20491;-72
2022/05/18 11:26:25;;;;;;;0.40;0.30;;;27.00;80.00;;;;;;4948690;28;20478;-72
2022/05/18 11:29:20;;;;;;;0.70;0.70;;;27.50;79.50;;;;;;4991457;28;20750;-72
2022/05/18 11:31:52;;;;;;;0.50;0.40;;;27.60;77.40;;;;;;4991410;28;20386;-72
2022/05/18 11:34:45;;;;;;;0.40;0.30;;;27.90;78.10;;;;;;4975693;28;20821;-70
2022/05/18 11:37:14;;;;;;;0.50;0.40;;;28.50;73.90;;;;;;4992705;28;20405;-70
2022/05/18 11:40:17;;;;;;;0.40;0.20;;;28.60;71.70;;;;;;4988497;28;20779;-71
2022/05/18 11:42:51;;;;;;;0.40;0.20;;;29.10;69.80;;;;;;4992098;28;20736;-73
2022/05/18 11:45:44;;;;;;;0.40;0.30;;;30.40;65.60;;;;;;4992358;28;20394;-73
2022/05/18 11:48:43;;;;;;;0.50;0.40;;;30.60;63.80;;;;;;4992323;28;20738;-72
2022/05/18 11:51:14;;;;;;;0.40;0.20;;;31.00;64.50;;;;;;4972482;28;20454;-72
2022/05/18 11:54:12;;;;;;;0.40;0.23;;;31.30;60.20;;;;;;4972769;28;20478;-73
2022/05/18 11:56:50;;;;;;;0.40;0.20;;;30.00;60.70;;;;;;4964019;28;20406;-71
2022/05/18 11:59:53;;;;;;;0.50;0.40;;;29.70;64.10;;;;;;4976159;28;20406;-72
2022/05/18 12:02:31;;;;;;;0.50;0.40;;;30.10;60.90;;;;;;4988808;28;20739;-73
2022/05/18 12:05:09;;;;;;;0.40;0.30;;;30.70;60.30;;;;;;4992500;28;20445;-74
2022/05/18 12:07:58;;;;;;;0.40;0.20;;;29.40;61.10;;;;;;4991862;28;20433;-74
2022/05/18 12:10:43;;;;;;;0.40;0.20;;;30.60;60.90;;;;;;4991954;28;20421;-77
2022/05/18 12:13:23;;;;;;;0.40;0.20;;;31.80;59.90;;;;;;4992470;28;20453;-72
2022/05/18 12:15:56;;;;;;;0.40;0.30;;;31.30;59.00;;;;;;4990554;28;20399;-73
2022/05/18 12:18:37;;;;;;;0.40;0.20;;;31.10;58.80;;;;;;4992714;28;20391;-74
2022/05/18 12:21:14;;;;;;;0.40;0.20;;;31.40;57.40;;;;;;4984521;28;20378;-74
2022/05/18 12:23:45;;;;;;;0.40;0.20;;;31.30;59.20;;;;;;4974141;28;20421;-74
2022/05/18 12:26:14;;;;;;;0.40;0.20;;;30.90;58.70;;;;;;4992043;28;20775;-73
2022/05/18 12:28:41;;;;;;;0.40;0.20;;;30.80;60.30;;;;;;4982315;28;20412;-72
2022/05/18 12:31:06;;;;;;;0.40;0.20;;;31.60;58.40;;;;;;4972494;28;20718;-72
2022/05/18 12:33:42;;;;;;;0.40;0.20;;;31.40;60.10;;;;;;4970682;28;20400;-73
2022/05/18 12:36:31;;;;;;;0.40;0.20;;;32.50;58.60;;;;;;4953080;28;20400;-73
2022/05/18 12:39:12;;;;;;;0.40;0.20;;;31.70;59.50;;;;;;4974963;28;20545;-74
2022/05/18 12:41:43;;;;;;;0.40;0.20;;;31.90;62.00;;;;;;4982438;28;20392;-74
2022/05/18 12:44:13;;;;;;;0.40;0.20;;;31.80;59.30;;;;;;4979631;28;20408;-72
2022/05/18 12:46:53;;;;;;;0.40;0.20;;;31.70;59.80;;;;;;4979919;28;20389;-72
2022/05/18 12:49:30;;;;;;;0.70;0.50;;;31.90;62.80;;;;;;4976672;28;20874;-73
2022/05/18 12:52:05;;;;;;;0.40;0.20;;;30.60;56.60;;;;;;4981981;28;20390;-73
2022/05/18 12:54:48;;;;;;;0.40;0.20;;;30.80;61.90;;;;;;4980818;28;20404;-76
2022/05/18 12:57:22;;;;;;;0.40;0.30;;;30.80;61.20;;;;;;4980840;28;20759;-74
2022/05/18 13:00:18;;;;;;;0.40;0.20;;;31.20;57.60;;;;;;4973866;28;20910;-73
2022/05/18 13:02:52;;;;;;;0.40;0.20;;;31.20;60.80;;;;;;4964536;28;20894;-73
2022/05/18 13:05:26;;;;;;;0.40;0.20;;;30.60;62.60;;;;;;4976953;28;20521;-74
2022/05/18 13:07:54;;;;;;;0.40;0.30;;;30.90;59.60;;;;;;4950137;28;20405;-75
2022/05/18 13:10:27;;;;;;;0.40;0.30;;;30.70;60.40;;;;;;4994393;28;20413;-72
2022/05/18 13:13:00;;;;;;;0.40;0.20;;;31.30;61.50;;;;;;4995452;28;20508;-74
2022/05/18 13:15:57;;;;;;;0.40;0.20;;;31.00;58.70;;;;;;4999427;28;20393;-74
2022/05/18 13:18:37;;;;;;;0.40;0.20;;;31.10;62.10;;;;;;4998180;28;20395;-73
2022/05/18 13:21:08;;;;;;;0.40;0.20;;;31.40;60.20;;;;;;4979286;28;20434;-73
2022/05/18 13:23:52;;;;;;;0.40;0.20;;;30.90;58.70;;;;;;4971821;28;20414;-73
2022/05/18 13:26:23;;;;;;;0.40;0.20;;;31.00;59.50;;;;;;4981369;28;20406;-73
2022/05/18 13:28:55;;;;;;;0.40;0.20;;;31.10;57.70;;;;;;4980219;28;20393;-72